createdAt,value
2023-01-22T00:00:35.329Z,88.82
2023-01-22T00:03:01.969Z,88.70
2023-01-22T00:05:28.381Z,88.80
2023-01-22T00:07:55.508Z,89.07
2023-01-22T00:10:21.810Z,88.69
2023-01-22T00:12:48.251Z,88.84
2023-01-22T00:15:14.801Z,88.56
2023-01-22T00:17:41.104Z,88.57
2023-01-22T00:20:08.308Z,88.27
2023-01-22T00:22:34.683Z,88.33
2023-01-22T00:25:01.180Z,88.55
2023-01-22T00:27:27.609Z,89.01
2023-01-22T00:29:54.301Z,89.21
2023-01-22T00:32:20.851Z,89.08
2023-01-22T00:34:47.318Z,89.02
2023-01-22T00:37:13.715Z,88.92
2023-01-22T00:39:40.108Z,88.75
2023-01-22T00:42:06.694Z,88.94
2023-01-22T00:44:33.243Z,88.77
2023-01-22T00:46:59.632Z,88.14
2023-01-22T00:49:26.023Z,88.33
2023-01-22T00:51:52.745Z,88.66
2023-01-22T00:54:19.049Z,88.69
2023-01-22T00:56:45.518Z,89.07
2023-01-22T00:59:11.818Z,89.24
2023-01-22T01:01:38.944Z,89.09
2023-01-22T01:04:05.884Z,88.96
2023-01-22T01:06:32.559Z,88.97
2023-01-22T01:08:58.875Z,89.40
2023-01-22T01:11:25.354Z,89.40
2023-01-22T01:13:52.468Z,89.71
2023-01-22T01:16:20.138Z,90.24
2023-01-22T01:18:47.363Z,89.84
2023-01-22T01:21:14.571Z,89.79
2023-01-22T01:23:41.529Z,90.16
2023-01-22T01:26:10.096Z,90.14
2023-01-22T01:28:37.091Z,89.98
2023-01-22T01:31:09.255Z,90.20
2023-01-22T01:33:35.946Z,90.04
2023-01-22T01:36:07.469Z,90.34
2023-01-22T01:38:34.163Z,90.10
2023-01-22T01:41:00.660Z,90.06
2023-01-22T01:43:27.449Z,89.44
2023-01-22T01:45:56.529Z,89.61
2023-01-22T01:48:37.966Z,88.89
2023-01-22T01:51:15.667Z,88.84
2023-01-22T01:53:44.591Z,88.93
2023-01-22T01:56:14.204Z,89.03
2023-01-22T01:58:42.770Z,88.81
2023-01-22T02:01:14.063Z,88.94
2023-01-22T02:03:41.452Z,89.07
2023-01-22T02:06:13.312Z,89.38
2023-01-22T02:08:42.369Z,89.16
2023-01-22T02:11:10.304Z,89.20
2023-01-22T02:13:39.676Z,89.27
2023-01-22T02:16:06.650Z,89.30
2023-01-22T02:18:33.496Z,89.12
2023-01-22T02:21:01.087Z,89.29
2023-01-22T02:23:30.224Z,88.84
2023-01-22T02:26:00.412Z,88.80
2023-01-22T02:28:26.800Z,89.08
2023-01-22T02:30:53.196Z,88.72
2023-01-22T02:33:19.709Z,88.59
2023-01-22T02:35:46.115Z,88.60
2023-01-22T02:38:12.515Z,89.03
2023-01-22T02:40:39.186Z,89.37
2023-01-22T02:43:05.614Z,89.22
2023-01-22T02:45:32.123Z,89.07
2023-01-22T02:47:58.724Z,89.22
2023-01-22T02:50:25.018Z,89.40
2023-01-22T02:52:51.337Z,89.50
2023-01-22T02:55:17.770Z,89.18
2023-01-22T02:57:44.342Z,89.04
2023-01-22T03:00:11.365Z,89.17
2023-01-22T03:02:37.729Z,89.50
2023-01-22T03:05:04.445Z,89.55
2023-01-22T03:07:32.043Z,89.76
2023-01-22T03:09:58.359Z,89.77
2023-01-22T03:12:24.768Z,89.89
2023-01-22T03:14:51.138Z,89.76
2023-01-22T03:17:17.480Z,89.43
2023-01-22T03:19:44.648Z,89.63
2023-01-22T03:22:11.091Z,89.94
2023-01-22T03:24:37.609Z,89.89
2023-01-22T03:27:04.583Z,89.82
2023-01-22T03:29:30.979Z,89.94
2023-01-22T03:31:57.451Z,89.85
2023-01-22T03:34:25.895Z,90.08
2023-01-22T03:36:52.717Z,89.96
2023-01-22T03:39:19.209Z,89.99
2023-01-22T03:41:45.612Z,90.16
2023-01-22T03:44:12.027Z,89.97
2023-01-22T03:46:39.194Z,89.51
2023-01-22T03:49:09.318Z,89.44
2023-01-22T03:51:36.304Z,89.38
2023-01-22T03:54:02.762Z,89.17
2023-01-22T03:56:29.614Z,88.40
2023-01-22T03:58:56.141Z,88.35
2023-01-22T04:01:25.357Z,88.57
2023-01-22T04:03:52.621Z,88.81
2023-01-22T04:06:20.908Z,88.79
2023-01-22T04:08:50.282Z,88.77
2023-01-22T04:11:17.160Z,89.19
2023-01-22T04:13:44.289Z,89.74
2023-01-22T04:16:11.746Z,89.90
2023-01-22T04:18:38.360Z,90.16
2023-01-22T04:21:05.084Z,90.31
2023-01-22T04:23:31.897Z,90.76
2023-01-22T04:25:58.237Z,90.73
2023-01-22T04:28:25.058Z,90.66
2023-01-22T04:30:53.858Z,91.22
2023-01-22T04:33:20.311Z,91.13
2023-01-22T04:35:51.670Z,91.46
2023-01-22T04:38:18.355Z,91.67
2023-01-22T04:40:44.804Z,91.63
2023-01-22T04:43:11.899Z,91.63
2023-01-22T04:45:38.455Z,91.77
2023-01-22T04:48:05.389Z,91.83
2023-01-22T04:50:33.588Z,91.85
2023-01-22T04:53:00.866Z,91.89
2023-01-22T04:55:28.237Z,91.95
2023-01-22T04:57:56.499Z,91.70
2023-01-22T05:00:24.436Z,91.82
2023-01-22T05:02:51.107Z,91.72
2023-01-22T05:05:17.833Z,91.91
2023-01-22T05:07:44.659Z,91.85
2023-01-22T05:10:11.227Z,92.11
2023-01-22T05:12:37.547Z,91.83
2023-01-22T05:15:15.033Z,91.93
2023-01-22T05:17:49.144Z,92.29
2023-01-22T05:20:15.939Z,91.76
2023-01-22T05:22:42.478Z,91.80
2023-01-22T05:25:09.034Z,91.79
2023-01-22T05:27:35.540Z,92.07
2023-01-22T05:30:02.177Z,92.17
2023-01-22T05:32:28.526Z,92.04
2023-01-22T05:34:54.973Z,91.99
2023-01-22T05:37:21.502Z,91.96
2023-01-22T05:39:48.082Z,91.53
2023-01-22T05:42:15.341Z,91.79
2023-01-22T05:44:42.244Z,91.63
2023-01-22T05:47:09.913Z,91.86
2023-01-22T05:49:36.260Z,91.68
2023-01-22T05:52:02.806Z,91.83
2023-01-22T05:54:29.148Z,91.86
2023-01-22T05:56:55.494Z,92.23
2023-01-22T05:59:21.927Z,91.97
2023-01-22T06:01:48.305Z,92.54
2023-01-22T06:04:14.679Z,92.52
2023-01-22T06:06:41.127Z,92.79
2023-01-22T06:09:07.627Z,93.03
2023-01-22T06:11:33.953Z,92.87
2023-01-22T06:14:00.263Z,92.91
2023-01-22T06:16:26.726Z,92.73
2023-01-22T06:18:53.200Z,92.37
2023-01-22T06:21:19.656Z,92.68
2023-01-22T06:23:45.979Z,92.73
2023-01-22T06:26:12.399Z,92.71
2023-01-22T06:28:38.718Z,92.75
2023-01-22T06:31:05.563Z,92.54
2023-01-22T06:33:34.111Z,92.94
2023-01-22T06:36:01.300Z,92.84
2023-01-22T06:38:27.694Z,92.68
2023-01-22T06:40:58.768Z,92.91
2023-01-22T06:43:27.226Z,92.74
2023-01-22T06:45:54.564Z,92.81
2023-01-22T06:48:21.031Z,92.70
2023-01-22T06:50:47.413Z,92.71
2023-01-22T06:53:13.968Z,92.95
2023-01-22T06:55:40.325Z,92.74
2023-01-22T06:58:07.109Z,93.15
2023-01-22T07:00:33.574Z,92.94
2023-01-22T07:02:59.897Z,93.30
2023-01-22T07:05:26.280Z,93.12
2023-01-22T07:07:54.125Z,92.97
2023-01-22T07:10:21.252Z,93.00
2023-01-22T07:12:49.095Z,93.06
2023-01-22T07:15:15.541Z,92.99
2023-01-22T07:17:42.173Z,92.98
2023-01-22T07:20:09.398Z,93.14
2023-01-22T07:22:35.757Z,93.18
2023-01-22T07:25:02.345Z,93.17
2023-01-22T07:27:28.881Z,93.46
2023-01-22T07:29:55.494Z,93.50
2023-01-22T07:32:21.959Z,93.32
2023-01-22T07:34:48.391Z,93.46
2023-01-22T07:37:14.707Z,93.60
2023-01-22T07:39:41.307Z,93.68
2023-01-22T07:42:07.716Z,93.83
2023-01-22T07:44:34.116Z,93.89
2023-01-22T07:47:00.708Z,93.84
2023-01-22T07:49:27.212Z,93.74
2023-01-22T07:51:53.526Z,93.47
2023-01-22T07:54:19.933Z,93.84
2023-01-22T07:56:46.244Z,93.90
2023-01-22T07:59:12.567Z,93.78
2023-01-22T08:01:39.119Z,93.91
2023-01-22T08:04:06.207Z,93.63
2023-01-22T08:06:32.911Z,94.05
2023-01-22T08:08:59.305Z,93.91
2023-01-22T08:11:26.950Z,93.96
2023-01-22T08:13:53.333Z,93.98
2023-01-22T08:16:19.833Z,93.71
2023-01-22T08:18:46.301Z,93.58
2023-01-22T08:21:12.659Z,93.19
2023-01-22T08:23:39.197Z,93.24
2023-01-22T08:26:05.593Z,93.05
2023-01-22T08:28:32.257Z,92.98
2023-01-22T08:30:59.838Z,92.61
2023-01-22T08:33:27.326Z,92.38
2023-01-22T08:35:53.651Z,92.00
2023-01-22T08:38:20.264Z,92.05
2023-01-22T08:40:53.043Z,91.78
2023-01-22T08:43:19.445Z,91.02
2023-01-22T08:45:48.614Z,91.21
2023-01-22T08:48:15.748Z,91.40
2023-01-22T08:50:42.264Z,91.56
2023-01-22T08:53:08.723Z,91.60
2023-01-22T08:55:35.081Z,91.23
2023-01-22T08:58:01.541Z,91.30
2023-01-22T09:00:27.849Z,91.40
2023-01-22T09:02:58.567Z,91.07
2023-01-22T09:05:25.553Z,91.27
2023-01-22T09:07:52.255Z,91.59
2023-01-22T09:10:21.376Z,91.41
2023-01-22T09:12:48.141Z,91.32
2023-01-22T09:15:14.559Z,91.07
2023-01-22T09:17:41.466Z,90.95
2023-01-22T09:20:08.448Z,90.53
2023-01-22T09:22:35.127Z,90.54
2023-01-22T09:25:01.594Z,90.22
2023-01-22T09:27:27.900Z,90.72
2023-01-22T09:29:54.276Z,90.36
2023-01-22T09:32:20.652Z,90.44
2023-01-22T09:34:47.056Z,90.12
2023-01-22T09:37:13.403Z,90.15
2023-01-22T09:39:39.953Z,89.26
2023-01-22T09:42:07.445Z,89.20
2023-01-22T09:44:41.925Z,88.65
2023-01-22T09:47:14.814Z,88.52
2023-01-22T09:49:58.426Z,89.01
2023-01-22T09:52:29.566Z,89.64
2023-01-22T09:54:56.215Z,89.56
2023-01-22T09:57:31.340Z,89.76
2023-01-22T09:59:58.523Z,89.36
2023-01-22T10:02:36.274Z,89.60
2023-01-22T10:05:14.522Z,89.77
2023-01-22T10:07:46.970Z,89.03
2023-01-22T10:10:23.016Z,89.22
2023-01-22T10:12:55.679Z,89.72
2023-01-22T10:15:24.041Z,90.19
2023-01-22T10:17:52.189Z,90.32
2023-01-22T10:20:19.040Z,90.22
2023-01-22T10:22:45.704Z,89.74
2023-01-22T10:25:14.130Z,89.76
2023-01-22T10:27:41.081Z,89.81
2023-01-22T10:30:27.509Z,89.72
2023-01-22T10:33:06.690Z,89.13
2023-01-22T10:35:42.937Z,89.50
2023-01-22T10:38:22.277Z,88.83
2023-01-22T10:40:54.828Z,89.34
2023-01-22T10:43:21.356Z,88.80
2023-01-22T10:45:56.253Z,89.19
2023-01-22T10:48:23.104Z,89.02
2023-01-22T10:51:13.200Z,85.23
2023-01-22T10:53:47.589Z,85.40
2023-01-22T10:56:26.033Z,85.08
2023-01-22T10:58:53.059Z,84.83
2023-01-22T11:01:28.287Z,85.88
2023-01-22T11:03:54.734Z,85.01
2023-01-22T11:06:41.626Z,85.06
2023-01-22T11:09:17.563Z,85.87
2023-01-22T11:11:50.672Z,85.17
2023-01-22T11:14:28.895Z,85.31
2023-01-22T11:17:01.926Z,84.67
2023-01-22T11:19:39.833Z,84.93
2023-01-22T11:22:23.631Z,86.06
2023-01-22T11:24:50.163Z,86.02
2023-01-22T11:27:25.926Z,86.49
2023-01-22T11:30:02.686Z,86.42
2023-01-22T11:33:09.122Z,86.58
2023-01-22T11:35:46.099Z,85.08
2023-01-22T11:38:36.272Z,84.74
2023-01-22T11:41:30.208Z,85.29
2023-01-22T11:44:36.655Z,86.35
2023-01-22T11:47:18.109Z,85.85
2023-01-22T11:50:06.609Z,85.04
2023-01-22T11:53:05.347Z,85.30
2023-01-22T11:55:43.999Z,85.98
2023-01-22T11:58:33.132Z,85.37
2023-01-22T12:01:24.790Z,86.64
2023-01-22T12:04:31.759Z,85.89
2023-01-22T12:07:06.892Z,85.71
2023-01-22T12:10:00.002Z,84.44
2023-01-22T12:12:59.168Z,83.39
2023-01-22T12:15:44.501Z,83.03
2023-01-22T12:18:39.768Z,82.84
2023-01-22T12:21:19.019Z,82.93
2023-01-22T12:24:08.904Z,83.34
2023-01-22T12:26:42.292Z,83.66
2023-01-22T12:29:27.370Z,85.29
2023-01-22T12:32:04.739Z,85.58
2023-01-22T12:34:38.630Z,85.21
2023-01-22T12:37:07.771Z,84.80
2023-01-22T12:39:38.836Z,84.94
2023-01-22T12:42:41.584Z,83.38
2023-01-22T12:45:27.861Z,85.58
2023-01-22T12:48:10.761Z,85.50
2023-01-22T12:50:52.310Z,84.74
2023-01-22T12:53:33.757Z,85.02
2023-01-22T12:56:10.460Z,85.44
2023-01-22T12:58:39.812Z,85.77
2023-01-22T13:01:22.461Z,85.66
2023-01-22T13:04:04.343Z,86.50
2023-01-22T13:06:38.013Z,85.38
2023-01-22T13:09:06.950Z,85.03
2023-01-22T13:11:39.105Z,84.61
2023-01-22T13:14:25.434Z,85.85
2023-01-22T13:16:57.084Z,86.65
2023-01-22T13:19:26.274Z,87.39
2023-01-22T13:21:53.266Z,87.57
2023-01-22T13:24:21.596Z,88.10
2023-01-22T13:27:00.079Z,87.67
2023-01-22T13:29:28.130Z,86.45
2023-01-22T13:32:01.940Z,86.69
2023-01-22T13:34:29.303Z,87.45
2023-01-22T13:36:56.563Z,88.18
2023-01-22T13:39:27.663Z,88.29
2023-01-22T13:41:56.718Z,88.27
2023-01-22T13:44:33.045Z,87.79
2023-01-22T13:47:00.052Z,88.36
2023-01-22T13:49:31.933Z,89.24
2023-01-22T13:52:04.275Z,89.00
2023-01-22T13:54:40.347Z,88.05
2023-01-22T13:57:06.714Z,86.92
2023-01-22T13:59:33.143Z,87.01
2023-01-22T14:01:59.542Z,87.17
2023-01-22T14:04:33.377Z,85.28
2023-01-22T14:07:00.296Z,83.77
2023-01-22T14:09:32.527Z,84.47
2023-01-22T14:12:00.344Z,85.76
2023-01-22T14:14:26.977Z,86.23
2023-01-22T14:16:53.537Z,87.02
2023-01-22T14:19:19.832Z,86.72
2023-01-22T14:21:46.386Z,86.33
2023-01-22T14:24:12.714Z,86.73
2023-01-22T14:26:39.099Z,85.97
2023-01-22T14:29:05.708Z,86.69
2023-01-22T14:31:32.096Z,85.03
2023-01-22T14:33:58.474Z,85.24
2023-01-22T14:36:25.006Z,85.32
2023-01-22T14:38:51.437Z,84.58
2023-01-22T14:41:17.760Z,85.60
2023-01-22T14:43:44.178Z,85.99
2023-01-22T14:46:10.660Z,84.81
2023-01-22T14:48:38.624Z,85.41
2023-01-22T14:51:10.159Z,85.21
2023-01-22T14:53:36.777Z,85.94
2023-01-22T14:56:03.297Z,85.96
2023-01-22T14:58:29.693Z,86.35
2023-01-22T15:00:56.018Z,86.34
2023-01-22T15:03:22.591Z,86.89
2023-01-22T15:05:52.437Z,87.05
2023-01-22T15:08:18.983Z,87.17
2023-01-22T15:10:45.541Z,86.41
2023-01-22T15:13:11.871Z,86.51
2023-01-22T15:15:38.435Z,86.00
2023-01-22T15:18:04.766Z,87.08
2023-01-22T15:20:31.145Z,87.11
2023-01-22T15:22:57.635Z,86.86
2023-01-22T15:25:24.068Z,87.13
2023-01-22T15:27:50.393Z,87.32
2023-01-22T15:30:17.023Z,87.51
2023-01-22T15:32:43.714Z,88.20
2023-01-22T15:35:10.398Z,88.31
2023-01-22T15:37:36.824Z,87.91
2023-01-22T15:40:03.739Z,87.85
2023-01-22T15:42:30.065Z,88.40
2023-01-22T15:44:56.507Z,88.04
2023-01-22T15:47:23.183Z,87.08
2023-01-22T15:49:49.673Z,86.22
2023-01-22T15:52:16.006Z,87.39
2023-01-22T15:54:42.696Z,86.52
2023-01-22T15:57:09.078Z,86.73
2023-01-22T15:59:35.449Z,86.77
2023-01-22T16:02:01.797Z,87.38
2023-01-22T16:04:28.206Z,86.69
2023-01-22T16:06:54.568Z,86.16
2023-01-22T16:09:20.945Z,87.03
2023-01-22T16:11:47.743Z,86.63
2023-01-22T16:14:14.436Z,85.98
2023-01-22T16:16:41.028Z,83.92
2023-01-22T16:19:09.743Z,84.24
2023-01-22T16:21:36.529Z,84.67
2023-01-22T16:24:03.169Z,85.17
2023-01-22T16:26:32.380Z,85.41
2023-01-22T16:29:00.606Z,85.28
2023-01-22T16:31:29.303Z,84.90
2023-01-22T16:33:59.039Z,85.89
2023-01-22T16:36:27.935Z,85.88
2023-01-22T16:38:54.421Z,85.29
2023-01-22T16:41:26.845Z,85.16
2023-01-22T16:44:11.139Z,84.20
2023-01-22T16:46:41.703Z,84.35
2023-01-22T16:49:13.352Z,82.78
2023-01-22T16:51:42.825Z,84.11
2023-01-22T16:54:32.438Z,83.37
2023-01-22T16:57:01.136Z,82.79
2023-01-22T16:59:27.545Z,83.92
2023-01-22T17:01:54.802Z,83.02
2023-01-22T17:04:21.251Z,84.06
2023-01-22T17:06:51.311Z,84.32
2023-01-22T17:09:23.955Z,85.00
2023-01-22T17:11:58.620Z,84.33
2023-01-22T17:14:27.496Z,84.25
2023-01-22T17:16:54.093Z,84.12
2023-01-22T17:19:20.893Z,84.41
2023-01-22T17:21:50.151Z,83.91
2023-01-22T17:24:16.453Z,83.49
2023-01-22T17:26:42.806Z,83.25
2023-01-22T17:29:10.262Z,83.89
2023-01-22T17:31:37.579Z,84.45
2023-01-22T17:34:04.451Z,81.89
2023-01-22T17:36:31.734Z,80.72
2023-01-22T17:38:58.125Z,81.51
2023-01-22T17:41:25.685Z,82.38
2023-01-22T17:43:53.116Z,82.98
2023-01-22T17:46:22.691Z,82.84
2023-01-22T17:48:50.997Z,81.53
2023-01-22T17:51:20.138Z,81.60
2023-01-22T17:53:48.745Z,81.98
2023-01-22T17:56:18.040Z,82.19
2023-01-22T17:58:47.416Z,83.39
2023-01-22T18:01:15.119Z,83.20
2023-01-22T18:03:41.883Z,83.07
2023-01-22T18:06:08.731Z,83.75
2023-01-22T18:08:36.461Z,83.88
2023-01-22T18:11:08.439Z,83.69
2023-01-22T18:13:36.150Z,84.40
2023-01-22T18:16:02.741Z,83.40
2023-01-22T18:18:29.512Z,83.69
2023-01-22T18:20:56.078Z,83.86
2023-01-22T18:23:22.686Z,84.48
2023-01-22T18:25:50.193Z,83.10
2023-01-22T18:28:18.380Z,83.09
2023-01-22T18:30:46.576Z,83.63
2023-01-22T18:33:14.261Z,84.15
2023-01-22T18:35:50.550Z,84.33
2023-01-22T18:38:18.214Z,82.82
2023-01-22T18:40:44.533Z,82.32
2023-01-22T18:43:10.922Z,82.84
2023-01-22T18:45:39.532Z,83.88
2023-01-22T18:48:07.034Z,83.00
2023-01-22T18:50:33.526Z,82.76
2023-01-22T18:52:59.975Z,83.37
2023-01-22T18:55:26.529Z,84.06
2023-01-22T18:57:53.013Z,83.13
2023-01-22T19:00:20.203Z,82.71
2023-01-22T19:02:56.688Z,81.85
2023-01-22T19:05:24.587Z,83.22
2023-01-22T19:07:51.099Z,81.98
2023-01-22T19:10:17.905Z,82.77
2023-01-22T19:12:44.897Z,82.98
2023-01-22T19:15:12.156Z,83.60
2023-01-22T19:17:38.964Z,84.23
2023-01-22T19:20:06.086Z,84.50
2023-01-22T19:22:32.443Z,84.50
2023-01-22T19:24:58.907Z,84.22
2023-01-22T19:27:25.395Z,84.62
2023-01-22T19:29:52.125Z,84.98
2023-01-22T19:32:18.508Z,85.19
2023-01-22T19:34:44.794Z,85.09
2023-01-22T19:37:11.111Z,85.15
2023-01-22T19:39:38.585Z,85.52
2023-01-22T19:42:06.375Z,85.85
2023-01-22T19:44:34.359Z,85.92
2023-01-22T19:47:00.965Z,86.16
2023-01-22T19:49:28.031Z,85.82
2023-01-22T19:51:54.368Z,85.25
2023-01-22T19:54:20.749Z,85.51
2023-01-22T19:56:47.121Z,85.69
2023-01-22T19:59:19.167Z,85.22
2023-01-22T20:01:46.956Z,84.94
2023-01-22T20:04:26.404Z,85.30
2023-01-22T20:06:58.384Z,85.36
2023-01-22T20:09:25.165Z,85.50
2023-01-22T20:11:53.521Z,84.93
2023-01-22T20:14:26.031Z,84.70
2023-01-22T20:16:52.354Z,85.05
2023-01-22T20:19:18.752Z,85.85
2023-01-22T20:21:45.047Z,86.04
2023-01-22T20:24:11.378Z,86.28
2023-01-22T20:26:37.832Z,86.33
2023-01-22T20:29:04.975Z,86.84
2023-01-22T20:31:31.446Z,87.01
2023-01-22T20:33:58.157Z,86.55
2023-01-22T20:36:26.308Z,86.01
2023-01-22T20:38:53.469Z,85.88
2023-01-22T20:41:21.681Z,86.31
2023-01-22T20:43:48.867Z,86.65
2023-01-22T20:46:18.755Z,86.67
2023-01-22T20:48:45.418Z,86.47
2023-01-22T20:51:15.439Z,86.60
2023-01-22T20:53:42.795Z,86.62
2023-01-22T20:56:13.500Z,86.52
2023-01-22T20:58:40.152Z,86.66
2023-01-22T21:01:12.307Z,86.78
2023-01-22T21:03:38.645Z,87.01
2023-01-22T21:06:07.778Z,87.54
2023-01-22T21:08:35.190Z,87.86
2023-01-22T21:11:04.180Z,88.09
2023-01-22T21:13:30.843Z,88.30
2023-01-22T21:15:57.484Z,88.40
2023-01-22T21:18:24.154Z,88.23
2023-01-22T21:20:50.800Z,87.81
2023-01-22T21:23:17.654Z,87.87
2023-01-22T21:25:44.073Z,88.41
2023-01-22T21:28:10.446Z,88.95
2023-01-22T21:30:36.981Z,89.34
2023-01-22T21:33:07.455Z,89.73
2023-01-22T21:35:34.008Z,89.86
2023-01-22T21:38:00.496Z,89.73
2023-01-22T21:40:27.019Z,90.56
2023-01-22T21:42:53.385Z,90.38
2023-01-22T21:45:20.038Z,90.49
2023-01-22T21:47:46.470Z,90.69
2023-01-22T21:50:12.883Z,90.87
2023-01-22T21:52:39.180Z,90.78
2023-01-22T21:55:07.782Z,90.69
2023-01-22T21:57:34.087Z,90.68
2023-01-22T22:00:00.459Z,90.51
2023-01-22T22:02:26.903Z,90.58
2023-01-22T22:04:53.257Z,90.85
2023-01-22T22:07:19.748Z,91.05
2023-01-22T22:09:46.095Z,91.29
2023-01-22T22:12:12.464Z,91.28
2023-01-22T22:14:38.952Z,91.22
2023-01-22T22:17:05.311Z,90.97
2023-01-22T22:19:31.851Z,90.73
2023-01-22T22:21:58.191Z,90.99
2023-01-22T22:24:24.576Z,90.88
2023-01-22T22:26:51.137Z,91.08
2023-01-22T22:29:17.592Z,90.91
2023-01-22T22:31:44.081Z,90.75
2023-01-22T22:34:10.932Z,90.73
2023-01-22T22:36:37.244Z,90.84
2023-01-22T22:39:04.350Z,90.67
2023-01-22T22:41:33.279Z,90.76
2023-01-22T22:44:00.136Z,90.45
2023-01-22T22:46:31.906Z,90.18
2023-01-22T22:49:00.175Z,89.92
2023-01-22T22:51:31.265Z,89.93
2023-01-22T22:54:00.430Z,89.61
2023-01-22T22:56:28.175Z,90.03
2023-01-22T22:58:55.855Z,89.87
2023-01-22T23:01:24.580Z,90.56
2023-01-22T23:03:51.477Z,90.55
2023-01-22T23:06:21.329Z,90.43
2023-01-22T23:08:50.066Z,90.04
2023-01-22T23:11:18.159Z,90.15
2023-01-22T23:13:46.397Z,90.12
2023-01-22T23:16:14.879Z,89.72
2023-01-22T23:18:41.362Z,90.12
2023-01-22T23:21:10.110Z,90.43
2023-01-22T23:23:36.871Z,90.77
2023-01-22T23:26:08.018Z,91.18
2023-01-22T23:28:34.511Z,91.21
2023-01-22T23:31:06.624Z,90.51
2023-01-22T23:33:33.264Z,89.32
2023-01-22T23:36:11.846Z,89.11
2023-01-22T23:38:39.352Z,89.32
2023-01-22T23:41:07.925Z,89.51
2023-01-22T23:43:34.896Z,89.42
2023-01-22T23:46:02.021Z,90.04
2023-01-22T23:48:28.411Z,89.74
2023-01-22T23:50:54.774Z,89.85
2023-01-22T23:53:22.234Z,89.85
2023-01-22T23:55:49.028Z,90.42
2023-01-22T23:58:15.822Z,90.28
